Time;durP1;ratioP1;P1;durP2;ratioP2;P2;SDS_P1;SDS_P2;PMS_P1;PMS_P2;Temp;Humidity;BMP_temperature;BMP_pressure;BME280_temperature;BME280_humidity;BME280_pressure;Samples;Min_cycle;Max_cycle;Signal;HPM_P1;HPM_P2
2023/03/08 00:00:06;;;;;;;11.73;7.40;;;6.70;1.00;;;;;;5008744;28;20840;-72
2023/03/08 00:02:31;;;;;;;13.00;7.17;;;6.70;1.00;;;;;;5003731;28;20551;-72
2023/03/08 00:04:57;;;;;;;12.57;7.60;;;6.60;1.00;;;;;;5008409;28;20430;-72
2023/03/08 00:07:23;;;;;;;12.73;7.17;;;6.60;1.00;;;;;;5005345;28;20179;-72
2023/03/08 00:09:49;;;;;;;13.40;6.70;;;6.60;1.00;;;;;;5008687;28;20221;-72
2023/03/08 00:12:18;;;;;;;8.93;6.83;;;6.60;1.00;;;;;;5006818;28;20342;-72
2023/03/08 00:14:43;;;;;;;13.53;6.73;;;6.60;1.00;;;;;;5008568;28;20569;-72
2023/03/08 00:17:09;;;;;;;12.73;7.63;;;6.60;1.00;;;;;;5000127;28;20809;-72
2023/03/08 00:19:34;;;;;;;13.37;7.80;;;6.60;1.00;;;;;;4993844;28;20286;-72
2023/03/08 00:22:00;;;;;;;11.73;7.30;;;6.60;1.00;;;;;;5004743;28;20222;-73
2023/03/08 00:24:25;;;;;;;11.50;6.30;;;6.60;1.00;;;;;;5006086;28;20633;-72
2023/03/08 00:26:51;;;;;;;9.87;7.00;;;6.50;1.00;;;;;;5000945;28;20183;-72
2023/03/08 00:29:16;;;;;;;9.30;7.10;;;6.50;1.00;;;;;;5009644;28;20185;-72
2023/03/08 00:31:42;;;;;;;11.40;7.10;;;6.60;1.00;;;;;;5006072;28;20255;-72
2023/03/08 00:34:07;;;;;;;14.90;6.97;;;6.40;1.00;;;;;;5007636;28;20256;-72
2023/03/08 00:36:33;;;;;;;10.57;6.77;;;6.40;1.00;;;;;;5001195;28;20190;-71
2023/03/08 00:38:58;;;;;;;11.67;7.40;;;6.40;1.00;;;;;;5008431;28;20193;-72
2023/03/08 00:41:24;;;;;;;11.93;7.00;;;6.40;1.00;;;;;;5008388;28;20202;-71
2023/03/08 00:43:49;;;;;;;10.97;7.03;;;6.40;1.00;;;;;;5008919;28;20210;-72
2023/03/08 00:46:15;;;;;;;12.70;7.50;;;6.80;1.00;;;;;;5003905;28;20552;-71
2023/03/08 00:48:41;;;;;;;12.90;7.30;;;6.50;1.00;;;;;;5006378;28;20772;-72
2023/03/08 00:51:07;;;;;;;10.03;6.73;;;6.50;1.00;;;;;;5006235;28;20226;-72
2023/03/08 00:53:33;;;;;;;11.07;7.40;;;6.50;1.00;;;;;;5006854;28;20616;-72
2023/03/08 00:56:00;;;;;;;13.77;7.47;;;6.50;1.00;;;;;;5005493;28;20437;-72
2023/03/08 00:58:27;;;;;;;12.93;8.30;;;6.30;1.00;;;;;;5000592;28;20449;-72
2023/03/08 01:00:53;;;;;;;11.03;6.73;;;6.30;1.00;;;;;;5003365;28;20476;-72
2023/03/08 01:03:23;;;;;;;11.93;6.40;;;6.20;1.00;;;;;;5006423;28;20469;-72
2023/03/08 01:05:51;;;;;;;11.73;7.07;;;6.10;1.00;;;;;;5009360;28;20437;-73
2023/03/08 01:08:18;;;;;;;13.90;7.73;;;6.10;1.00;;;;;;5000292;28;20926;-72
2023/03/08 01:10:51;;;;;;;11.90;7.77;;;6.00;1.00;;;;;;5000385;28;20543;-72
2023/03/08 01:13:18;;;;;;;11.77;7.17;;;5.90;1.00;;;;;;5007083;28;20531;-72
2023/03/08 01:15:44;;;;;;;11.40;7.00;;;5.90;1.00;;;;;;5006492;28;20433;-72
2023/03/08 01:18:10;;;;;;;12.43;8.00;;;6.00;1.00;;;;;;5001779;28;20452;-72
2023/03/08 01:20:35;;;;;;;10.90;6.47;;;6.00;1.00;;;;;;5005073;28;20903;-72
2023/03/08 01:23:01;;;;;;;11.10;6.97;;;6.00;1.00;;;;;;5004784;28;20210;-72
2023/03/08 01:25:27;;;;;;;10.60;7.30;;;6.10;1.00;;;;;;5006985;28;20190;-72
2023/03/08 01:27:52;;;;;;;14.30;7.33;;;6.10;1.00;;;;;;5005750;28;20262;-72
2023/03/08 01:30:18;;;;;;;14.83;7.17;;;6.10;1.00;;;;;;5005368;28;20552;-72
2023/03/08 01:32:43;;;;;;;12.47;7.00;;;6.10;1.00;;;;;;5004481;28;20661;-72
2023/03/08 01:35:09;;;;;;;12.30;7.10;;;6.10;1.00;;;;;;4997651;28;20208;-71
2023/03/08 01:37:35;;;;;;;12.03;7.30;;;6.10;1.00;;;;;;5000783;28;20179;-72
2023/03/08 01:40:00;;;;;;;14.50;7.67;;;6.00;1.00;;;;;;5010112;28;20220;-72
2023/03/08 01:42:26;;;;;;;12.77;7.23;;;6.00;1.00;;;;;;5008282;28;20206;-72
2023/03/08 01:44:54;;;;;;;14.07;8.07;;;6.00;1.00;;;;;;5011184;28;20197;-72
2023/03/08 01:47:22;;;;;;;13.73;7.57;;;6.00;1.00;;;;;;5006342;28;20186;-72
2023/03/08 01:49:48;;;;;;;11.63;7.00;;;6.00;1.00;;;;;;5007698;28;20861;-72
2023/03/08 01:52:27;;;;;;;13.07;7.77;;;6.00;1.00;;;;;;5006139;28;20433;-72
2023/03/08 01:54:56;;;;;;;15.00;8.30;;;6.00;1.00;;;;;;5006579;28;20536;-72
2023/03/08 01:57:44;;;;;;;13.07;7.40;;;6.00;1.00;;;;;;5004115;28;20965;-72
2023/03/08 02:00:18;;;;;;;11.33;7.67;;;6.00;1.00;;;;;;5003853;28;20471;-72
2023/03/08 02:03:02;;;;;;;14.47;7.37;;;6.00;1.00;;;;;;5011744;28;20546;-72
2023/03/08 02:05:29;;;;;;;13.03;7.70;;;5.90;1.00;;;;;;5009267;28;20967;-72
2023/03/08 02:07:55;;;;;;;15.30;7.60;;;5.90;1.00;;;;;;5006484;28;20457;-72
2023/03/08 02:10:20;;;;;;;16.77;8.93;;;5.80;1.00;;;;;;5010482;28;20479;-72
2023/03/08 02:12:47;;;;;;;12.57;7.77;;;5.80;1.00;;;;;;5009958;28;20214;-72
2023/03/08 02:15:14;;;;;;;14.03;7.53;;;5.80;1.00;;;;;;5010001;28;20243;-72
2023/03/08 02:17:41;;;;;;;11.50;7.63;;;5.70;1.00;;;;;;5009312;28;20456;-72
2023/03/08 02:20:16;;;;;;;12.83;8.07;;;5.60;1.00;;;;;;5008022;28;20515;-72
2023/03/08 02:22:44;;;;;;;11.80;7.60;;;5.60;1.00;;;;;;5011165;28;20563;-73
2023/03/08 02:25:24;;;;;;;12.00;7.90;;;5.60;1.00;;;;;;5008957;28;20491;-73
2023/03/08 02:27:52;;;;;;;13.73;7.77;;;5.60;1.00;;;;;;5009318;28;20854;-72
2023/03/08 02:30:24;;;;;;;16.53;7.87;;;5.50;1.00;;;;;;5023396;28;20449;-72
2023/03/08 02:32:49;;;;;;;13.57;7.97;;;5.50;1.00;;;;;;5010581;28;20494;-72
2023/03/08 02:35:15;;;;;;;16.20;8.47;;;5.50;1.00;;;;;;5009841;28;20449;-72
2023/03/08 02:37:41;;;;;;;15.33;8.67;;;5.50;1.00;;;;;;5010190;28;20269;-72
2023/03/08 02:40:07;;;;;;;14.30;8.50;;;5.40;1.00;;;;;;5009055;28;20324;-72
2023/03/08 02:42:33;;;;;;;14.43;7.30;;;5.40;1.00;;;;;;5008342;28;20210;-72
2023/03/08 02:44:58;;;;;;;14.80;9.00;;;5.40;1.00;;;;;;5006117;28;20440;-72
2023/03/08 02:47:24;;;;;;;11.67;7.70;;;5.40;1.00;;;;;;5008778;28;20763;-72
2023/03/08 02:49:49;;;;;;;13.67;8.00;;;5.40;1.00;;;;;;5005891;28;20199;-71
2023/03/08 02:52:15;;;;;;;16.30;8.43;;;5.40;1.00;;;;;;5009448;28;20248;-71
2023/03/08 02:54:41;;;;;;;12.63;8.23;;;5.40;1.00;;;;;;5010579;28;20704;-72
2023/03/08 02:57:06;;;;;;;14.87;8.77;;;5.40;1.00;;;;;;5009085;28;20235;-71
2023/03/08 02:59:32;;;;;;;14.80;9.03;;;5.40;1.00;;;;;;5008529;28;20202;-71
2023/03/08 03:01:57;;;;;;;13.10;8.37;;;5.40;1.00;;;;;;5010269;28;20214;-71
2023/03/08 03:04:23;;;;;;;15.87;7.80;;;5.40;1.00;;;;;;5009997;28;20590;-71
2023/03/08 03:06:48;;;;;;;15.63;8.30;;;5.40;1.00;;;;;;5010015;28;20218;-72
2023/03/08 03:09:14;;;;;;;15.63;8.77;;;5.40;1.00;;;;;;5009486;28;20186;-71
2023/03/08 03:11:40;;;;;;;16.67;8.33;;;5.50;1.00;;;;;;5009017;28;20204;-71
2023/03/08 03:14:06;;;;;;;15.10;8.17;;;5.50;1.00;;;;;;4996343;28;20174;-71
2023/03/08 03:16:32;;;;;;;14.33;8.17;;;5.50;1.00;;;;;;5007879;28;20531;-71
2023/03/08 03:18:57;;;;;;;14.10;8.80;;;5.50;1.00;;;;;;5007705;28;20186;-72
2023/03/08 03:21:23;;;;;;;16.30;9.00;;;5.50;1.00;;;;;;5009125;28;20207;-72
2023/03/08 03:23:49;;;;;;;16.30;8.20;;;5.40;1.00;;;;;;5007976;28;20214;-71
2023/03/08 03:26:20;;;;;;;21.17;9.07;;;5.40;1.00;;;;;;5008004;28;20438;-71
2023/03/08 03:28:47;;;;;;;14.10;8.43;;;5.40;1.00;;;;;;5007213;28;20183;-71
2023/03/08 03:31:18;;;;;;;15.33;8.90;;;5.50;1.00;;;;;;5008507;28;20472;-72
2023/03/08 03:33:44;;;;;;;15.20;8.60;;;5.50;1.00;;;;;;5008018;28;20469;-71
2023/03/08 03:36:12;;;;;;;13.93;8.70;;;5.50;1.00;;;;;;5008879;28;20445;-71
2023/03/08 03:38:38;;;;;;;15.03;8.13;;;5.60;1.00;;;;;;5006407;28;20442;-71
2023/03/08 03:41:10;;;;;;;14.27;8.83;;;5.60;1.00;;;;;;5009653;28;20593;-71
2023/03/08 03:43:36;;;;;;;16.97;9.30;;;5.60;1.00;;;;;;5008657;28;20214;-71
2023/03/08 03:46:04;;;;;;;13.43;8.77;;;5.60;1.00;;;;;;5005848;28;20467;-71
2023/03/08 03:48:30;;;;;;;18.97;10.00;;;5.60;1.00;;;;;;5008994;28;20504;-71
2023/03/08 03:50:58;;;;;;;17.40;9.17;;;5.60;1.00;;;;;;5009655;28;20453;-71
2023/03/08 03:53:26;;;;;;;19.87;9.20;;;5.70;1.00;;;;;;5009896;28;20965;-72
2023/03/08 03:55:51;;;;;;;15.90;10.03;;;5.70;1.00;;;;;;5005678;28;20449;-71
2023/03/08 03:58:17;;;;;;;14.00;8.90;;;5.70;1.00;;;;;;4994991;28;20442;-72
2023/03/08 04:00:42;;;;;;;16.67;9.63;;;5.70;1.00;;;;;;5003747;28;20218;-72
2023/03/08 04:03:08;;;;;;;14.63;8.50;;;5.70;1.00;;;;;;5000719;28;20256;-71
2023/03/08 04:05:34;;;;;;;16.47;9.83;;;5.70;1.00;;;;;;5004239;28;20191;-71
2023/03/08 04:07:59;;;;;;;15.27;9.30;;;5.70;1.00;;;;;;5002559;28;20957;-71
2023/03/08 04:10:25;;;;;;;20.93;10.07;;;5.70;1.00;;;;;;5006712;28;20680;-71
2023/03/08 04:12:51;;;;;;;16.30;9.70;;;5.80;1.00;;;;;;5003137;28;20217;-71
2023/03/08 04:15:17;;;;;;;15.50;8.80;;;5.80;1.00;;;;;;5005409;28;20305;-71
2023/03/08 04:17:43;;;;;;;14.73;9.00;;;5.80;1.00;;;;;;5004528;28;20528;-71
2023/03/08 04:20:09;;;;;;;18.63;9.87;;;5.80;1.00;;;;;;5002998;28;20206;-70
2023/03/08 04:22:35;;;;;;;14.20;8.73;;;5.80;1.00;;;;;;5003333;28;20540;-70
2023/03/08 04:25:00;;;;;;;15.57;9.37;;;5.80;1.00;;;;;;4996892;28;20924;-71
2023/03/08 04:27:26;;;;;;;18.60;10.10;;;5.80;1.00;;;;;;4999429;28;20221;-71
2023/03/08 04:29:52;;;;;;;17.50;9.30;;;5.80;1.00;;;;;;5006794;28;20451;-71
2023/03/08 04:32:17;;;;;;;17.07;9.30;;;5.80;1.00;;;;;;5009271;28;20270;-71
2023/03/08 04:34:43;;;;;;;16.20;9.10;;;5.80;1.00;;;;;;4999344;28;20665;-70
2023/03/08 04:37:12;;;;;;;17.63;9.20;;;5.80;1.00;;;;;;5002686;28;20221;-71
2023/03/08 04:39:37;;;;;;;17.47;9.10;;;5.80;1.00;;;;;;5009695;28;20545;-70
2023/03/08 04:42:03;;;;;;;14.97;9.13;;;5.80;1.00;;;;;;5005508;28;20473;-71
2023/03/08 04:44:29;;;;;;;15.63;9.60;;;5.80;1.00;;;;;;5008404;28;20191;-71
2023/03/08 04:46:55;;;;;;;15.80;9.13;;;5.70;1.00;;;;;;4998579;28;21015;-71
2023/03/08 04:49:20;;;;;;;13.97;9.60;;;5.70;1.00;;;;;;5003386;28;20213;-71
2023/03/08 04:51:46;;;;;;;13.10;8.60;;;5.80;1.00;;;;;;5009499;28;20708;-71
2023/03/08 04:54:11;;;;;;;17.73;9.37;;;5.80;1.00;;;;;;5005903;28;20178;-71
2023/03/08 04:56:37;;;;;;;17.73;9.37;;;5.80;1.00;;;;;;5006085;28;20186;-71
2023/03/08 04:59:03;;;;;;;14.20;9.07;;;5.70;1.00;;;;;;5008713;28;20550;-71
2023/03/08 05:01:28;;;;;;;17.37;9.53;;;5.70;1.00;;;;;;5006065;28;20759;-71
2023/03/08 05:03:54;;;;;;;16.13;9.83;;;5.70;1.00;;;;;;5006488;28;20218;-70
2023/03/08 05:06:22;;;;;;;16.23;8.73;;;5.70;1.00;;;;;;5003894;28;20527;-71
2023/03/08 05:08:48;;;;;;;15.00;9.43;;;5.70;1.00;;;;;;5001271;28;20187;-71
2023/03/08 05:11:19;;;;;;;15.60;10.37;;;5.70;1.00;;;;;;5009210;28;21046;-71
2023/03/08 05:13:45;;;;;;;17.70;9.50;;;5.70;1.00;;;;;;5005025;28;20186;-71
2023/03/08 05:16:10;;;;;;;17.40;9.80;;;5.70;1.00;;;;;;5005915;28;20444;-71
2023/03/08 05:18:36;;;;;;;18.10;10.00;;;5.70;1.00;;;;;;5005108;28;20246;-71
2023/03/08 05:21:08;;;;;;;15.20;9.50;;;5.70;1.00;;;;;;5006992;28;20213;-70
2023/03/08 05:23:34;;;;;;;16.50;9.23;;;5.80;1.00;;;;;;5009030;28;20696;-71
2023/03/08 05:26:01;;;;;;;13.83;8.90;;;5.80;1.00;;;;;;5008712;28;20436;-71
2023/03/08 05:28:29;;;;;;;15.70;9.50;;;5.80;1.00;;;;;;5003231;28;20229;-71
2023/03/08 05:31:14;;;;;;;18.20;9.73;;;5.80;1.00;;;;;;5005770;28;20540;-71
2023/03/08 05:33:42;;;;;;;13.30;8.50;;;5.80;1.00;;;;;;5008196;28;20971;-70
2023/03/08 05:36:07;;;;;;;17.13;9.43;;;5.80;1.00;;;;;;5004712;28;20448;-70
2023/03/08 05:38:33;;;;;;;16.47;9.50;;;5.90;1.00;;;;;;5002882;28;21064;-71
2023/03/08 05:41:04;;;;;;;20.83;10.83;;;5.90;1.00;;;;;;5005252;28;20209;-71
2023/03/08 05:43:30;;;;;;;18.60;10.17;;;5.90;1.00;;;;;;5002856;28;20999;-70
2023/03/08 05:45:59;;;;;;;18.50;11.17;;;6.00;1.00;;;;;;5007723;28;20448;-71
2023/03/08 05:48:25;;;;;;;19.63;10.90;;;6.00;1.00;;;;;;5007522;28;20182;-71
2023/03/08 05:50:51;;;;;;;17.17;10.57;;;6.10;1.00;;;;;;5005056;28;20515;-72
2023/03/08 05:53:17;;;;;;;21.77;10.40;;;5.90;1.00;;;;;;5007826;28;20732;-71
2023/03/08 05:55:42;;;;;;;15.30;9.13;;;5.90;1.00;;;;;;5008830;28;20899;-71
2023/03/08 05:58:08;;;;;;;16.77;10.00;;;5.90;1.00;;;;;;4999978;28;20190;-71
2023/03/08 06:00:33;;;;;;;14.73;9.70;;;5.80;1.00;;;;;;5008639;28;20222;-71
2023/03/08 06:03:02;;;;;;;15.17;9.07;;;5.80;1.00;;;;;;5000838;28;20225;-71
2023/03/08 06:05:28;;;;;;;17.10;9.57;;;5.80;1.00;;;;;;4997977;28;20261;-71
2023/03/08 06:07:54;;;;;;;14.90;10.07;;;5.90;1.00;;;;;;5003322;28;20792;-71
2023/03/08 06:10:20;;;;;;;16.43;9.03;;;5.90;1.00;;;;;;5007228;28;20457;-71
2023/03/08 06:12:45;;;;;;;18.93;9.70;;;5.90;1.00;;;;;;5008156;28;20269;-71
2023/03/08 06:15:11;;;;;;;15.40;9.67;;;5.90;1.00;;;;;;5007540;28;20186;-71
2023/03/08 06:17:37;;;;;;;15.27;9.50;;;5.90;1.00;;;;;;4995850;28;20186;-70
2023/03/08 06:20:03;;;;;;;18.13;10.50;;;5.90;1.00;;;;;;5002515;28;20487;-70
2023/03/08 06:22:29;;;;;;;14.60;9.40;;;5.90;1.00;;;;;;5002266;28;20979;-70
2023/03/08 06:24:54;;;;;;;21.03;10.53;;;5.90;1.00;;;;;;5005054;28;20724;-71
2023/03/08 06:27:20;;;;;;;17.87;9.83;;;5.90;1.00;;;;;;5007617;28;20186;-71
2023/03/08 06:29:47;;;;;;;21.30;12.20;;;6.00;1.00;;;;;;5009716;28;20210;-70
2023/03/08 06:32:12;;;;;;;24.67;12.60;;;5.90;1.00;;;;;;5010860;28;20191;-71
2023/03/08 06:34:38;;;;;;;20.80;11.90;;;5.90;1.00;;;;;;5011235;28;20495;-70
2023/03/08 06:37:03;;;;;;;20.30;12.60;;;5.90;1.00;;;;;;5009570;28;20190;-70
2023/03/08 06:39:30;;;;;;;20.80;11.73;;;5.90;1.00;;;;;;5011521;28;20232;-70
2023/03/08 06:41:56;;;;;;;22.73;11.80;;;5.90;1.00;;;;;;5011708;28;20568;-71
2023/03/08 06:44:22;;;;;;;17.07;11.53;;;5.90;1.00;;;;;;5012144;28;20421;-71
2023/03/08 06:46:47;;;;;;;19.40;11.00;;;5.90;1.00;;;;;;5008540;28;20441;-70
2023/03/08 06:49:13;;;;;;;26.97;11.50;;;6.00;1.00;;;;;;5004791;28;20580;-70
2023/03/08 06:51:38;;;;;;;20.37;11.07;;;6.00;1.00;;;;;;5006829;28;20214;-71
2023/03/08 06:54:04;;;;;;;17.97;10.97;;;6.00;1.00;;;;;;5001222;28;20229;-71
2023/03/08 06:56:29;;;;;;;17.67;10.97;;;6.00;1.00;;;;;;4999869;28;20186;-70
2023/03/08 06:58:55;;;;;;;21.47;12.00;;;6.00;1.00;;;;;;5009488;28;20198;-70
2023/03/08 07:01:21;;;;;;;18.43;10.90;;;6.00;1.00;;;;;;5006367;28;20237;-70
2023/03/08 07:03:47;;;;;;;23.07;10.83;;;6.00;1.00;;;;;;5010487;28;20771;-70
2023/03/08 07:06:13;;;;;;;16.73;9.60;;;6.00;1.00;;;;;;5006310;28;20218;-70
2023/03/08 07:08:40;;;;;;;18.80;9.87;;;6.00;1.00;;;;;;5007579;28;20958;-71
2023/03/08 07:11:07;;;;;;;14.10;9.60;;;6.00;1.00;;;;;;5008222;28;20457;-70
2023/03/08 07:13:33;;;;;;;17.30;11.00;;;6.10;1.00;;;;;;5007012;28;20436;-71
2023/03/08 07:15:58;;;;;;;18.13;10.00;;;6.00;1.00;;;;;;5007926;28;20440;-71
2023/03/08 07:18:24;;;;;;;17.40;9.40;;;6.00;1.00;;;;;;5004785;28;20732;-70
2023/03/08 07:20:56;;;;;;;15.70;9.00;;;6.00;1.00;;;;;;5000719;28;20784;-70
2023/03/08 07:23:22;;;;;;;15.13;9.60;;;6.00;1.00;;;;;;5007096;28;20212;-71
2023/03/08 07:25:48;;;;;;;17.83;8.63;;;6.00;1.00;;;;;;5009027;28;20434;-70
2023/03/08 07:28:13;;;;;;;15.03;8.93;;;5.90;1.00;;;;;;5004927;28;20855;-71
2023/03/08 07:30:39;;;;;;;17.00;9.70;;;5.80;1.00;;;;;;5009322;28;20233;-71
2023/03/08 07:33:04;;;;;;;13.10;7.40;;;5.70;1.00;;;;;;5008499;28;20282;-71
2023/03/08 07:35:30;;;;;;;15.33;9.50;;;5.30;1.00;;;;;;5007466;28;20186;-71
2023/03/08 07:37:56;;;;;;;15.60;9.33;;;5.00;1.00;;;;;;5004830;28;20190;-70
2023/03/08 07:40:21;;;;;;;18.63;10.23;;;5.00;1.00;;;;;;5003454;28;20211;-71
2023/03/08 07:42:47;;;;;;;18.07;10.33;;;4.80;1.00;;;;;;4999034;28;20692;-70
2023/03/08 07:45:13;;;;;;;19.93;11.27;;;4.70;1.00;;;;;;5002212;28;20190;-71
2023/03/08 07:47:39;;;;;;;21.70;10.30;;;4.50;1.00;;;;;;5002726;28;20735;-71
2023/03/08 07:50:05;;;;;;;20.80;10.80;;;4.30;1.00;;;;;;5004473;28;20210;-70
2023/03/08 07:52:31;;;;;;;16.60;9.93;;;4.30;1.00;;;;;;5010505;28;21038;-70
2023/03/08 07:54:57;;;;;;;18.63;10.77;;;4.30;1.00;;;;;;5002249;28;20528;-70
2023/03/08 07:57:23;;;;;;;21.40;11.10;;;4.10;1.00;;;;;;5006505;28;20274;-70
2023/03/08 07:59:51;;;;;;;24.33;11.37;;;4.10;1.00;;;;;;5002263;28;20202;-70
2023/03/08 08:02:17;;;;;;;16.87;10.60;;;4.00;1.00;;;;;;5007408;28;20891;-71
2023/03/08 08:04:43;;;;;;;20.10;11.33;;;3.90;1.00;;;;;;5008881;28;20445;-71
2023/03/08 08:07:14;;;;;;;20.70;11.40;;;3.90;1.00;;;;;;5009066;28;20474;-70
2023/03/08 08:09:39;;;;;;;21.70;12.13;;;3.70;1.00;;;;;;5007815;28;20184;-70
2023/03/08 08:12:05;;;;;;;22.07;11.63;;;3.70;1.00;;;;;;5010324;28;20851;-70
2023/03/08 08:14:31;;;;;;;22.33;11.97;;;3.60;1.00;;;;;;5009248;28;20174;-71
2023/03/08 08:16:56;;;;;;;21.27;11.10;;;3.60;1.00;;;;;;5006513;28;20278;-70
2023/03/08 08:19:22;;;;;;;18.77;11.10;;;3.50;1.00;;;;;;5006758;28;20187;-70
2023/03/08 08:21:48;;;;;;;21.57;12.07;;;3.40;1.00;;;;;;5004305;28;20182;-70
2023/03/08 08:24:14;;;;;;;22.63;12.23;;;3.70;1.00;;;;;;5006905;28;20205;-70
2023/03/08 08:26:39;;;;;;;25.43;12.37;;;3.20;1.00;;;;;;5007768;28;20178;-70
2023/03/08 08:29:05;;;;;;;20.43;10.30;;;3.20;1.00;;;;;;5005527;28;20185;-70
2023/03/08 08:31:30;;;;;;;24.77;11.90;;;3.10;1.00;;;;;;5008275;28;20580;-70
2023/03/08 08:33:57;;;;;;;22.40;11.40;;;2.90;1.00;;;;;;5007091;28;20190;-70
2023/03/08 08:36:23;;;;;;;22.10;11.33;;;3.00;1.00;;;;;;5008805;28;20194;-71
2023/03/08 08:38:49;;;;;;;20.77;11.97;;;3.00;1.00;;;;;;5009937;28;20449;-72
2023/03/08 08:41:16;;;;;;;20.73;11.53;;;3.00;1.00;;;;;;5009922;28;20213;-70
2023/03/08 08:43:44;;;;;;;23.27;12.00;;;3.00;1.00;;;;;;5009705;28;20479;-70
2023/03/08 08:46:10;;;;;;;22.77;12.53;;;3.00;1.00;;;;;;5007138;28;20441;-72
2023/03/08 08:48:37;;;;;;;26.27;14.00;;;3.30;1.00;;;;;;5006831;28;20438;-70
2023/03/08 08:51:07;;;;;;;18.30;10.83;;;3.20;1.00;;;;;;5002532;28;20462;-70
2023/03/08 08:53:33;;;;;;;21.77;11.60;;;3.30;1.00;;;;;;5006807;28;20903;-69
2023/03/08 08:56:07;;;;;;;20.67;11.57;;;3.40;1.00;;;;;;5006216;28;20438;-70
2023/03/08 08:58:33;;;;;;;17.00;10.17;;;3.50;1.00;;;;;;5006874;28;20432;-70
2023/03/08 09:00:58;;;;;;;35.57;17.40;;;3.50;1.00;;;;;;5003039;28;20479;-71
2023/03/08 09:03:24;;;;;;;33.60;15.57;;;3.60;1.00;;;;;;5007015;28;20707;-70
2023/03/08 09:05:49;;;;;;;30.67;15.53;;;3.70;1.00;;;;;;5005682;28;20182;-71
2023/03/08 09:08:15;;;;;;;24.33;12.40;;;3.70;1.00;;;;;;5002413;28;20191;-70
2023/03/08 09:10:41;;;;;;;22.53;10.43;;;3.70;1.00;;;;;;5007745;28;20198;-70
2023/03/08 09:13:07;;;;;;;20.97;12.90;;;3.70;1.00;;;;;;5009293;28;20433;-70
2023/03/08 09:15:35;;;;;;;19.33;10.53;;;3.60;1.00;;;;;;5007660;28;20383;-70
2023/03/08 09:18:01;;;;;;;18.87;11.10;;;3.70;1.00;;;;;;5009395;28;20429;-69
2023/03/08 09:20:27;;;;;;;19.73;11.27;;;3.70;1.00;;;;;;5002114;28;20851;-70
2023/03/08 09:22:52;;;;;;;17.60;10.40;;;3.80;1.00;;;;;;5009695;28;20218;-70
2023/03/08 09:25:19;;;;;;;18.80;11.07;;;3.80;1.00;;;;;;5007500;28;20186;-71
2023/03/08 09:27:45;;;;;;;18.20;9.60;;;3.80;1.00;;;;;;5006103;28;20178;-71
2023/03/08 09:30:13;;;;;;;14.90;9.47;;;3.90;1.00;;;;;;5004109;28;20900;-71
2023/03/08 09:32:38;;;;;;;18.50;9.50;;;3.90;1.00;;;;;;5009552;28;20228;-71
2023/03/08 09:35:04;;;;;;;19.47;10.63;;;3.90;1.00;;;;;;5006783;28;20469;-71
2023/03/08 09:37:30;;;;;;;18.13;10.13;;;4.00;1.00;;;;;;5002102;28;20190;-71
2023/03/08 09:39:56;;;;;;;16.63;10.70;;;4.10;1.00;;;;;;5008112;28;20466;-71
2023/03/08 09:42:26;;;;;;;22.70;11.20;;;4.20;1.00;;;;;;5001834;28;20203;-71
2023/03/08 09:44:59;;;;;;;18.70;10.90;;;4.20;1.00;;;;;;5008554;28;20179;-71
2023/03/08 09:47:40;;;;;;;18.30;10.70;;;4.20;1.00;;;;;;5002644;28;20525;-72
2023/03/08 09:50:12;;;;;;;19.80;11.40;;;4.20;1.00;;;;;;5006284;28;20461;-72
2023/03/08 09:52:53;;;;;;;19.03;10.80;;;4.30;1.00;;;;;;5007383;28;20528;-71
2023/03/08 09:55:28;;;;;;;22.10;11.40;;;4.30;1.00;;;;;;5005497;28;20437;-73
2023/03/08 09:57:56;;;;;;;19.27;11.13;;;4.30;1.00;;;;;;5006711;28;21043;-71
2023/03/08 10:00:34;;;;;;;15.67;9.27;;;4.40;1.00;;;;;;5009886;28;20476;-70
2023/03/08 10:03:34;;;;;;;21.13;10.97;;;4.50;1.00;;;;;;5009372;28;20465;-71
2023/03/08 10:06:26;;;;;;;15.87;9.47;;;4.60;1.00;;;;;;4999008;28;20823;-71
2023/03/08 10:09:05;;;;;;;15.23;9.10;;;4.60;1.00;;;;;;5001224;28;20979;-71
2023/03/08 10:11:44;;;;;;;14.50;8.27;;;5.00;1.00;;;;;;5007285;28;20468;-71
2023/03/08 10:14:25;;;;;;;19.00;10.20;;;5.10;1.00;;;;;;5011028;28;20441;-71
2023/03/08 10:16:54;;;;;;;17.33;9.70;;;4.90;1.00;;;;;;5011370;28;20808;-71
2023/03/08 10:19:34;;;;;;;18.27;9.43;;;4.90;1.00;;;;;;5008067;28;20532;-70
2023/03/08 10:22:07;;;;;;;16.60;8.93;;;4.90;1.00;;;;;;5011819;28;20429;-71
2023/03/08 10:24:49;;;;;;;13.27;7.83;;;4.90;1.00;;;;;;5011319;28;20453;-71
2023/03/08 10:27:21;;;;;;;14.83;8.80;;;4.90;1.00;;;;;;5009398;28;20441;-71
2023/03/08 10:29:48;;;;;;;14.80;10.10;;;5.00;1.00;;;;;;5010935;28;20507;-71
2023/03/08 10:32:14;;;;;;;15.80;9.40;;;5.10;1.00;;;;;;5008350;28;20847;-71
2023/03/08 10:34:40;;;;;;;17.40;10.27;;;5.20;1.00;;;;;;5007434;28;20439;-71
2023/03/08 10:37:06;;;;;;;18.70;10.07;;;5.70;1.00;;;;;;5008847;28;20692;-72
2023/03/08 10:39:33;;;;;;;14.07;9.10;;;6.00;1.00;;;;;;5010756;28;20460;-70
2023/03/08 10:42:05;;;;;;;16.70;9.90;;;5.40;1.00;;;;;;5009417;28;20571;-71
2023/03/08 10:44:50;;;;;;;15.77;10.23;;;5.50;1.00;;;;;;5012148;28;20433;-71
2023/03/08 10:47:21;;;;;;;14.90;8.87;;;5.50;1.00;;;;;;5010736;28;20476;-71
2023/03/08 10:49:46;;;;;;;15.60;9.63;;;5.40;1.00;;;;;;5009002;28;20488;-72
2023/03/08 10:52:30;;;;;;;18.37;9.23;;;5.40;1.00;;;;;;5011529;28;20480;-72
2023/03/08 10:55:17;;;;;;;16.77;9.80;;;5.50;1.00;;;;;;5010084;28;20238;-71
2023/03/08 10:57:52;;;;;;;19.50;10.37;;;5.60;1.00;;;;;;5007636;28;20851;-71
2023/03/08 11:00:18;;;;;;;14.63;9.23;;;5.70;1.00;;;;;;5010257;28;20453;-71
2023/03/08 11:02:45;;;;;;;17.10;10.13;;;5.70;1.00;;;;;;5010818;28;21041;-71
2023/03/08 11:05:19;;;;;;;16.90;9.40;;;6.10;1.00;;;;;;5011023;28;20177;-71
2023/03/08 11:07:53;;;;;;;15.80;9.17;;;5.80;1.00;;;;;;5012192;28;21039;-71
2023/03/08 11:10:22;;;;;;;17.00;10.10;;;5.70;1.00;;;;;;5010137;28;20499;-71
2023/03/08 11:13:00;;;;;;;15.67;9.63;;;5.80;1.00;;;;;;5010292;28;20916;-70
2023/03/08 11:15:28;;;;;;;19.03;10.37;;;5.80;1.00;;;;;;5008894;28;20439;-71
2023/03/08 11:18:05;;;;;;;14.60;9.30;;;5.90;1.00;;;;;;5011289;28;20532;-71
2023/03/08 11:20:37;;;;;;;20.83;9.57;;;5.90;1.00;;;;;;5004473;28;20828;-71
2023/03/08 11:23:39;;;;;;;15.93;8.90;;;6.00;1.00;;;;;;5010015;28;20469;-71
2023/03/08 11:26:17;;;;;;;17.53;10.83;;;6.20;1.00;;;;;;4979009;28;20446;-72
2023/03/08 11:29:11;;;;;;;13.97;9.23;;;6.30;1.00;;;;;;5009929;28;20426;-72
2023/03/08 11:31:51;;;;;;;16.27;10.40;;;6.40;1.00;;;;;;5003999;28;20466;-71
2023/03/08 11:34:44;;;;;;;15.67;9.73;;;6.60;1.00;;;;;;5010416;28;20504;-71
2023/03/08 11:37:38;;;;;;;16.10;10.07;;;6.70;1.00;;;;;;5008096;28;20441;-71
2023/03/08 11:40:17;;;;;;;14.57;9.80;;;6.70;1.00;;;;;;5009109;28;20457;-71
2023/03/08 11:43:03;;;;;;;17.80;9.50;;;6.70;1.00;;;;;;5009412;28;20496;-72
2023/03/08 11:46:06;;;;;;;18.00;10.63;;;6.80;1.00;;;;;;5009469;28;20433;-73
2023/03/08 11:48:54;;;;;;;19.23;9.33;;;6.70;1.00;;;;;;4973686;28;20579;-73
2023/03/08 11:51:44;;;;;;;16.07;8.87;;;6.70;1.00;;;;;;5009522;28;20488;-73
2023/03/08 11:54:28;;;;;;;14.80;9.37;;;6.70;1.00;;;;;;5009621;28;20495;-73
2023/03/08 11:56:56;;;;;;;18.63;10.07;;;6.80;1.00;;;;;;5006213;28;20484;-72
2023/03/08 11:59:27;;;;;;;14.23;9.40;;;6.90;1.00;;;;;;5008894;28;20503;-73
2023/03/08 12:02:01;;;;;;;18.23;8.80;;;6.90;1.00;;;;;;5003036;28;20520;-73
2023/03/08 12:04:37;;;;;;;14.30;9.80;;;7.00;1.00;;;;;;5008340;28;20433;-71
2023/03/08 12:07:11;;;;;;;16.43;9.80;;;7.10;1.00;;;;;;5004329;28;20436;-71
2023/03/08 12:09:46;;;;;;;14.90;9.20;;;7.20;1.00;;;;;;5010002;28;20437;-72
2023/03/08 12:12:29;;;;;;;19.03;9.83;;;7.20;1.00;;;;;;5008537;28;20508;-71
2023/03/08 12:14:56;;;;;;;18.13;9.77;;;7.20;1.00;;;;;;5006897;28;20453;-71
2023/03/08 12:17:30;;;;;;;13.33;9.43;;;7.30;1.00;;;;;;5009880;28;20437;-72
2023/03/08 12:19:56;;;;;;;18.10;10.90;;;7.30;1.00;;;;;;5007509;28;21753;-73
2023/03/08 12:22:45;;;;;;;23.03;13.23;;;7.30;1.00;;;;;;5009705;28;20491;-71
2023/03/08 12:25:33;;;;;;;22.50;13.47;;;7.40;1.00;;;;;;5009591;28;20175;-71
2023/03/08 12:28:11;;;;;;;19.00;11.27;;;7.50;1.00;;;;;;5009368;28;20436;-71
2023/03/08 12:31:27;;;;;;;20.57;11.30;;;7.80;1.00;;;;;;5007735;28;20845;-73
2023/03/08 12:33:53;;;;;;;16.07;9.60;;;7.50;1.00;;;;;;4969260;28;21028;-71
2023/03/08 12:36:21;;;;;;;23.53;10.10;;;7.70;1.00;;;;;;4975651;28;20451;-72
2023/03/08 12:38:54;;;;;;;17.43;9.93;;;7.70;1.00;;;;;;4994010;28;20452;-71
2023/03/08 12:41:31;;;;;;;16.07;10.50;;;7.70;1.00;;;;;;5010604;28;20449;-71
2023/03/08 12:44:02;;;;;;;15.63;10.57;;;7.60;1.00;;;;;;5010083;28;21005;-72
2023/03/08 12:46:50;;;;;;;18.90;11.67;;;7.70;1.00;;;;;;5002744;28;20424;-73
2023/03/08 12:49:32;;;;;;;17.40;10.53;;;7.70;1.00;;;;;;5007674;28;20441;-72
2023/03/08 12:52:21;;;;;;;20.90;11.10;;;7.70;1.00;;;;;;5009282;28;20491;-70
2023/03/08 12:54:59;;;;;;;16.50;10.03;;;7.70;1.00;;;;;;5003785;28;20464;-71
2023/03/08 12:57:41;;;;;;;17.67;10.60;;;7.70;1.00;;;;;;5008440;28;20457;-72
2023/03/08 13:00:31;;;;;;;14.90;9.90;;;7.80;1.00;;;;;;5006094;28;20449;-72
2023/03/08 13:03:04;;;;;;;14.73;9.10;;;7.80;1.00;;;;;;5005839;28;20465;-73